createdAt,value
2022-12-19T00:01:57.785Z,14.47
2022-12-19T00:06:59.959Z,14.73
2022-12-19T00:12:01.691Z,16.08
2022-12-19T00:17:03.346Z,15.73
2022-12-19T00:22:10.894Z,17.03
2022-12-19T00:27:12.902Z,16.08
2022-12-19T00:32:14.586Z,17.83
2022-12-19T00:37:18.250Z,14.57
2022-12-19T00:42:19.965Z,15.40
2022-12-19T00:47:23.652Z,14.52
2022-12-19T00:52:25.353Z,13.87
2022-12-19T00:57:27.338Z,14.73
2022-12-19T01:02:29.135Z,14.35
2022-12-19T01:07:30.849Z,13.32
2022-12-19T01:12:47.730Z,15.23
2022-12-19T01:17:49.841Z,15.45
2022-12-19T01:22:53.294Z,16.33
2022-12-19T01:27:55.797Z,16.53
2022-12-19T01:32:58.686Z,16.45
2022-12-19T01:38:08.478Z,16.38
2022-12-19T01:43:14.843Z,15.33
2022-12-19T01:48:22.482Z,15.82
2022-12-19T01:53:28.943Z,16.20
2022-12-19T01:58:31.017Z,17.23
2022-12-19T02:03:35.550Z,17.47
2022-12-19T02:08:37.635Z,18.03
2022-12-19T02:13:40.585Z,16.80
2022-12-19T02:19:30.405Z,15.77
2022-12-19T02:24:50.829Z,17.23
2022-12-19T02:30:10.513Z,16.90
2022-12-19T02:35:40.416Z,14.87
2022-12-19T02:40:51.882Z,15.33
2022-12-19T02:46:00.933Z,16.97
2022-12-19T02:51:04.693Z,16.40
2022-12-19T02:56:22.827Z,17.23
2022-12-19T03:01:31.038Z,17.23
2022-12-19T03:06:48.456Z,18.85
2022-12-19T03:12:00.528Z,16.80
2022-12-19T03:17:06.107Z,17.73
2022-12-19T03:22:08.522Z,17.27
2022-12-19T03:27:22.788Z,18.70
2022-12-19T03:32:25.240Z,16.73
2022-12-19T03:37:31.991Z,17.67
2022-12-19T03:42:54.243Z,17.73
2022-12-19T03:48:00.915Z,19.83
2022-12-19T03:53:23.979Z,18.52
2022-12-19T03:58:33.976Z,17.37
2022-12-19T04:03:36.183Z,16.30
2022-12-19T04:08:38.532Z,15.63
2022-12-19T04:13:47.575Z,16.30
2022-12-19T04:18:56.450Z,17.20
2022-12-19T04:24:04.610Z,17.98
2022-12-19T04:29:08.073Z,15.85
2022-12-19T04:34:09.844Z,14.30
2022-12-19T04:39:11.639Z,16.63
2022-12-19T04:44:13.312Z,15.17
2022-12-19T04:49:14.957Z,14.13
2022-12-19T04:54:16.842Z,12.03
2022-12-19T04:59:18.609Z,13.55
2022-12-19T05:04:20.419Z,13.30
2022-12-19T05:09:22.177Z,11.07
2022-12-19T05:14:24.282Z,12.37
2022-12-19T05:19:25.993Z,11.70
2022-12-19T05:24:27.662Z,12.05
2022-12-19T05:29:29.367Z,12.40
2022-12-19T05:34:31.753Z,10.73
2022-12-19T05:39:33.492Z,10.93
2022-12-19T05:44:35.292Z,11.73
2022-12-19T05:49:37.003Z,11.57
2022-12-19T05:54:38.657Z,13.23
2022-12-19T05:59:40.309Z,10.70
2022-12-19T06:04:42.009Z,11.93
2022-12-19T06:09:43.697Z,11.63
2022-12-19T06:14:45.345Z,11.60
2022-12-19T06:19:47.003Z,11.90
2022-12-19T06:24:48.685Z,11.88
2022-12-19T06:29:50.416Z,11.57
2022-12-19T06:35:07.422Z,12.73
2022-12-19T06:40:29.749Z,13.20
2022-12-19T06:45:31.673Z,12.88
2022-12-19T06:50:36.381Z,12.10
2022-12-19T06:55:40.071Z,13.80
2022-12-19T07:00:41.863Z,13.37
2022-12-19T07:05:44.098Z,14.00
2022-12-19T07:10:45.877Z,14.47
2022-12-19T07:15:48.252Z,14.82
2022-12-19T07:20:49.984Z,13.60
2022-12-19T07:25:51.764Z,15.23
2022-12-19T07:30:53.528Z,14.80
2022-12-19T07:35:55.425Z,14.70
2022-12-19T07:41:01.237Z,14.87
2022-12-19T07:46:02.962Z,15.00
2022-12-19T07:51:05.450Z,15.20
2022-12-19T07:56:07.685Z,15.27
2022-12-19T08:01:10.126Z,15.60
2022-12-19T08:06:11.995Z,15.18
2022-12-19T08:11:19.136Z,15.05
2022-12-19T08:16:21.666Z,16.77
2022-12-19T08:21:25.011Z,14.70
2022-12-19T08:26:27.759Z,14.00
2022-12-19T08:31:31.800Z,16.03
2022-12-19T08:36:33.944Z,14.70
2022-12-19T08:41:35.745Z,21.33
2022-12-19T08:46:37.563Z,13.73
2022-12-19T08:51:39.326Z,15.23
2022-12-19T08:56:46.837Z,15.23
2022-12-19T09:01:49.041Z,14.13
2022-12-19T09:06:50.950Z,16.08
2022-12-19T09:11:52.695Z,15.02
2022-12-19T09:16:54.440Z,14.70
2022-12-19T09:21:59.547Z,15.43
2022-12-19T09:27:01.229Z,15.07
2022-12-19T09:32:03.103Z,17.98
2022-12-19T09:37:10.438Z,16.73
2022-12-19T09:42:35.121Z,17.20
2022-12-19T09:47:47.080Z,17.83
2022-12-19T09:52:58.304Z,19.77
2022-12-19T09:58:06.178Z,19.38
2022-12-19T10:03:38.803Z,16.90
2022-12-19T10:09:16.650Z,14.95
2022-12-19T10:14:22.694Z,15.80
2022-12-19T10:19:35.058Z,14.73
2022-12-19T10:25:10.459Z,14.20
2022-12-19T10:30:18.983Z,13.35
2022-12-19T10:35:21.167Z,13.43
2022-12-19T10:40:32.117Z,13.20
2022-12-19T10:45:41.018Z,16.23
2022-12-19T10:50:43.754Z,14.18
2022-12-19T10:55:51.802Z,14.55
2022-12-19T11:01:11.901Z,17.42
2022-12-19T11:06:35.385Z,15.40
2022-12-19T11:13:30.998Z,17.55
2022-12-19T11:23:49.428Z,17.65
2022-12-19T11:29:34.562Z,15.77
2022-12-19T11:29:37.373Z,17.63
2022-12-19T11:33:18.408Z,16.60
2022-12-19T11:38:27.877Z,15.43
2022-12-19T11:43:44.584Z,16.20
2022-12-19T11:48:54.025Z,16.25
2022-12-19T11:54:12.303Z,18.02
2022-12-19T11:59:37.846Z,16.30
2022-12-19T12:04:54.618Z,16.35
2022-12-19T12:13:45.659Z,17.45
2022-12-19T12:26:23.051Z,17.20
2022-12-19T12:31:05.106Z,17.23
2022-12-19T12:31:58.266Z,17.27
2022-12-19T12:35:46.912Z,16.95
2022-12-19T12:39:20.742Z,17.55
2022-12-19T12:44:33.175Z,18.95
2022-12-19T12:49:54.432Z,19.67
2022-12-19T12:54:57.835Z,17.85
2022-12-19T13:00:35.961Z,18.08
2022-12-19T13:05:45.836Z,16.52
2022-12-19T13:10:59.285Z,18.13
2022-12-19T13:16:39.429Z,16.67
2022-12-19T13:22:04.114Z,17.83
2022-12-19T13:27:32.359Z,16.45
2022-12-19T13:32:53.964Z,17.40
2022-12-19T13:39:56.400Z,20.00
2022-12-19T13:43:46.424Z,18.40
2022-12-19T13:48:52.537Z,18.73
2022-12-19T13:53:59.557Z,21.15
2022-12-19T13:59:04.341Z,19.63
2022-12-19T14:04:08.019Z,19.55
2022-12-19T14:11:27.765Z,19.67
2022-12-19T14:15:13.152Z,21.58
2022-12-19T14:22:07.202Z,22.45
2022-12-19T14:28:19.379Z,22.08
2022-12-19T14:31:15.257Z,24.70
2022-12-19T14:36:39.128Z,28.20
2022-12-19T14:42:04.336Z,25.80
2022-12-19T14:52:25.144Z,25.10
2022-12-19T14:54:37.231Z,27.88
2022-12-19T14:58:55.865Z,23.02
2022-12-19T15:03:32.139Z,22.63
2022-12-19T15:09:17.743Z,22.75
2022-12-19T15:14:53.929Z,22.98
2022-12-19T15:19:20.344Z,22.77
2022-12-19T15:24:22.104Z,21.63
2022-12-19T15:29:23.909Z,21.77
2022-12-19T15:34:41.940Z,22.15
2022-12-19T15:39:50.333Z,23.27
2022-12-19T15:44:54.047Z,22.20
2022-12-19T15:49:55.744Z,21.17
2022-12-19T15:54:57.505Z,20.08
2022-12-19T16:00:02.725Z,19.77
2022-12-19T16:05:06.737Z,20.08
2022-12-19T16:10:11.952Z,21.83
2022-12-19T16:15:19.931Z,17.95
2022-12-19T16:20:25.334Z,18.27
2022-12-19T16:25:34.141Z,18.38
2022-12-19T16:30:35.854Z,20.73
2022-12-19T16:40:59.263Z,18.45
2022-12-19T16:46:01.997Z,19.75
2022-12-19T16:51:04.030Z,20.95
2022-12-19T16:56:05.861Z,24.10
2022-12-19T17:01:10.596Z,20.95
2022-12-19T17:06:17.878Z,18.65
2022-12-19T17:11:24.940Z,18.33
2022-12-19T17:16:26.726Z,14.85
2022-12-19T17:21:28.494Z,16.92
2022-12-19T17:26:30.340Z,14.80
2022-12-19T17:31:38.079Z,17.02
2022-12-19T17:36:39.992Z,18.20
2022-12-19T17:41:41.686Z,18.42
2022-12-19T17:46:44.372Z,17.38
2022-12-19T17:51:50.466Z,20.77
2022-12-19T17:56:52.605Z,18.50
2022-12-19T18:01:54.524Z,17.73
2022-12-19T18:06:56.380Z,16.08
2022-12-19T18:11:58.206Z,18.83
2022-12-19T18:17:00.373Z,18.33
2022-12-19T18:22:02.276Z,21.48
2022-12-19T18:27:03.987Z,20.80
2022-12-19T18:32:05.761Z,17.70
2022-12-19T18:37:13.374Z,18.27
2022-12-19T18:42:22.021Z,20.90
2022-12-19T18:47:25.507Z,20.40
2022-12-19T18:52:27.219Z,19.73
2022-12-19T18:57:28.908Z,19.45
2022-12-19T19:02:30.924Z,20.15
2022-12-19T19:07:32.843Z,22.05
2022-12-19T19:12:34.522Z,21.33
2022-12-19T19:17:36.474Z,21.77
2022-12-19T19:22:38.263Z,22.48
2022-12-19T19:27:40.702Z,20.67
2022-12-19T19:32:50.570Z,24.77
2022-12-19T19:37:54.777Z,22.17
2022-12-19T19:42:56.491Z,20.73
2022-12-19T19:48:03.072Z,19.80
2022-12-19T19:53:04.835Z,22.42
2022-12-19T19:58:06.937Z,17.98
2022-12-19T20:03:10.030Z,17.20
2022-12-19T20:08:13.927Z,16.75
2022-12-19T20:13:15.603Z,21.63
2022-12-19T20:18:18.081Z,23.60
2022-12-19T20:23:19.781Z,22.88
2022-12-19T20:28:21.455Z,15.63
2022-12-19T20:33:23.605Z,20.17
2022-12-19T20:38:25.428Z,18.98
2022-12-19T20:43:27.245Z,20.35
2022-12-19T20:48:28.941Z,20.70
2022-12-19T20:53:31.854Z,19.65
2022-12-19T20:58:36.383Z,21.08
2022-12-19T21:03:39.524Z,20.20
2022-12-19T21:08:42.101Z,20.02
2022-12-19T21:13:44.173Z,17.85
2022-12-19T21:18:47.516Z,16.88
2022-12-19T21:23:50.185Z,17.58
2022-12-19T21:28:53.216Z,17.42
2022-12-19T21:34:00.337Z,20.30
2022-12-19T21:39:02.580Z,23.80
2022-12-19T21:44:04.587Z,24.35
2022-12-19T21:49:06.647Z,24.65
2022-12-19T21:54:09.628Z,21.63
2022-12-19T21:59:14.474Z,25.85
2022-12-19T22:04:22.100Z,28.10
2022-12-19T22:09:23.934Z,27.45
2022-12-19T22:14:26.024Z,25.73
2022-12-19T22:19:27.711Z,27.55
2022-12-19T22:24:29.604Z,29.48
2022-12-19T22:29:36.431Z,26.87
2022-12-19T22:34:38.351Z,30.17
2022-12-19T22:39:40.047Z,28.13
2022-12-19T22:44:41.709Z,27.95
2022-12-19T22:49:43.383Z,28.05
2022-12-19T22:54:45.087Z,28.23
2022-12-19T22:59:46.754Z,31.38
2022-12-19T23:04:48.445Z,28.85
2022-12-19T23:09:50.166Z,29.42
2022-12-19T23:14:51.860Z,32.25
2022-12-19T23:19:53.563Z,33.13
2022-12-19T23:24:55.265Z,31.20
2022-12-19T23:29:56.978Z,31.77
2022-12-19T23:34:58.667Z,32.67
2022-12-19T23:40:00.408Z,32.73
2022-12-19T23:45:02.150Z,32.55
2022-12-19T23:50:04.453Z,35.73
2022-12-19T23:55:06.788Z,33.83
